Time;durP1;ratioP1;P1;durP2;ratioP2;P2;SDS_P1;SDS_P2;PMS_P1;PMS_P2;Temp;Humidity;BMP_temperature;BMP_pressure;BME280_temperature;BME280_humidity;BME280_pressure;Samples;Min_cycle;Max_cycle;Signal;HPM_P1;HPM_P2
2024/02/05 00:02:14;;;;;;;23.30;14.93;;;;;;;2.44;100.00;100690.00;5007408;28;20042;-65
2024/02/05 00:04:40;;;;;;;20.45;12.68;;;;;;;2.15;100.00;100632.72;5002574;28;20472;-68
2024/02/05 00:07:05;;;;;;;23.95;15.65;;;;;;;2.30;100.00;100660.97;4987125;28;20053;-66
2024/02/05 00:09:31;;;;;;;23.65;15.68;;;;;;;2.37;100.00;100669.97;5037343;28;20048;-63
2024/02/05 00:11:56;;;;;;;26.35;17.00;;;;;;;2.31;100.00;100656.78;5049381;28;20040;-66
2024/02/05 00:14:23;;;;;;;29.17;18.38;;;;;;;2.22;100.00;100677.38;5044949;28;20455;-71
2024/02/05 00:16:48;;;;;;;25.20;17.88;;;;;;;2.22;100.00;100675.69;5050010;28;20025;-64
2024/02/05 00:19:14;;;;;;;27.92;19.83;;;;;;;2.25;100.00;100682.66;5048641;28;20029;-65
2024/02/05 00:21:39;;;;;;;25.98;18.02;;;;;;;2.27;100.00;100663.31;5049185;28;20036;-66
2024/02/05 00:24:05;;;;;;;27.67;18.98;;;;;;;2.28;100.00;100664.19;5049233;28;20602;-64
2024/02/05 00:26:30;;;;;;;32.30;20.13;;;;;;;2.28;100.00;100662.53;5049035;28;20033;-65
2024/02/05 00:28:56;;;;;;;30.60;21.42;;;;;;;2.25;100.00;100652.97;5049372;28;20020;-64
2024/02/05 00:31:21;;;;;;;26.05;18.08;;;;;;;2.33;100.00;100655.22;5048884;28;20076;-67
2024/02/05 00:33:47;;;;;;;25.23;18.27;;;;;;;2.32;100.00;100653.44;5048725;28;20052;-66
2024/02/05 00:36:12;;;;;;;25.63;17.85;;;;;;;2.29;100.00;100651.53;5048477;28;20029;-64
2024/02/05 00:38:38;;;;;;;24.98;17.30;;;;;;;2.26;100.00;100639.47;5048510;28;20036;-68
2024/02/05 00:41:03;;;;;;;28.10;16.73;;;;;;;2.25;100.00;100635.16;5047580;28;20029;-66
2024/02/05 00:43:30;;;;;;;22.70;16.98;;;;;;;2.17;100.00;100643.00;5049682;28;20472;-63
2024/02/05 00:45:55;;;;;;;26.52;16.30;;;;;;;2.16;100.00;100623.44;5049633;28;20476;-67
2024/02/05 00:48:21;;;;;;;27.27;17.27;;;;;;;2.04;100.00;100605.56;5049359;28;20036;-64
2024/02/05 00:50:46;;;;;;;25.08;16.17;;;;;;;2.25;100.00;100641.91;5048987;28;20040;-66
2024/02/05 00:53:12;;;;;;;23.13;15.57;;;;;;;2.23;100.00;100643.44;5049602;28;20036;-63
2024/02/05 00:55:37;;;;;;;23.58;14.50;;;;;;;2.18;100.00;100638.03;5052673;28;20453;-66
2024/02/05 00:58:03;;;;;;;20.58;14.15;;;;;;;2.19;100.00;100633.81;5052984;28;20035;-65
2024/02/05 01:00:28;;;;;;;22.10;14.68;;;;;;;2.08;100.00;100639.03;5053547;28;20037;-63
2024/02/05 01:02:54;;;;;;;30.73;19.65;;;;;;;2.02;100.00;100650.41;5051458;28;20111;-68
2024/02/05 01:05:19;;;;;;;28.65;19.73;;;;;;;1.53;100.00;100553.47;5052751;28;20047;-65
2024/02/05 01:07:45;;;;;;;23.55;15.00;;;;;;;1.93;100.00;100626.06;5052636;28;20056;-63
2024/02/05 01:10:10;;;;;;;24.80;16.85;;;;;;;1.67;100.00;100626.66;5052644;28;20462;-66
2024/02/05 01:12:37;;;;;;;26.13;16.58;;;;;;;0.99;100.00;100531.66;5052426;28;20033;-64
2024/02/05 01:15:04;;;;;;;27.17;17.33;;;;;;;1.49;100.00;100610.88;5045691;28;20033;-66
2024/02/05 01:17:29;;;;;;;27.90;17.52;;;;;;;0.86;100.00;100500.22;5043812;28;20032;-65
2024/02/05 01:19:55;;;;;;;31.40;19.38;;;;;;;1.40;100.00;100617.81;5052035;28;20025;-66
2024/02/05 01:22:20;;;;;;;28.55;19.38;;;;;;;1.55;100.00;100611.34;5052360;28;20056;-67
2024/02/05 01:24:46;;;;;;;26.13;17.10;;;;;;;1.33;100.00;100575.75;5052974;28;20029;-66
2024/02/05 01:27:11;;;;;;;22.30;14.80;;;;;;;1.33;100.00;100568.13;5052667;28;20407;-66
2024/02/05 01:29:37;;;;;;;22.45;15.18;;;;;;;1.61;100.00;100575.31;5052334;28;20036;-64
2024/02/05 01:32:04;;;;;;;23.85;14.98;;;;;;;1.16;100.00;100484.59;5051731;28;20844;-66
2024/02/05 01:34:29;;;;;;;20.38;11.93;;;;;;;1.82;100.00;100580.19;5052332;28;20452;-65
2024/02/05 01:36:55;;;;;;;22.80;15.05;;;;;;;1.96;100.00;100581.19;5052898;28;20068;-64
2024/02/05 01:39:22;;;;;;;25.13;15.93;;;;;;;2.13;100.00;100587.53;5052384;28;20441;-65
2024/02/05 01:41:47;;;;;;;27.27;16.83;;;;;;;2.21;100.00;100581.34;5051752;28;20079;-64
2024/02/05 01:44:13;;;;;;;30.92;18.50;;;;;;;2.32;100.00;100582.09;5051646;28;20412;-63
2024/02/05 01:46:39;;;;;;;22.08;15.43;;;;;;;2.31;100.00;100591.41;5017236;28;20475;-65
2024/02/05 01:49:07;;;;;;;22.17;14.73;;;;;;;2.28;100.00;100580.09;5051731;28;20525;-70
2024/02/05 01:51:43;;;;;;;21.77;14.15;;;;;;;2.24;100.00;100569.72;5052034;28;20044;-66
2024/02/05 01:54:12;;;;;;;22.05;14.50;;;;;;;1.66;100.00;100487.44;5040007;28;20094;-64
2024/02/05 01:56:39;;;;;;;23.30;14.93;;;;;;;1.99;100.00;100561.06;5051622;28;20065;-65
2024/02/05 01:59:05;;;;;;;22.23;14.50;;;;;;;1.89;100.00;100539.13;5051808;28;20025;-64
2024/02/05 02:01:32;;;;;;;22.85;14.68;;;;;;;1.90;100.00;100515.47;5051713;28;20033;-65
2024/02/05 02:04:00;;;;;;;20.25;12.95;;;;;;;2.00;100.00;100500.06;5051856;28;20044;-67
2024/02/05 02:06:26;;;;;;;21.00;14.43;;;;;;;2.26;100.00;100518.88;5046228;28;20041;-63
2024/02/05 02:08:53;;;;;;;23.70;16.17;;;;;;;2.33;100.00;100509.97;5051504;28;20025;-65
2024/02/05 02:11:18;;;;;;;25.92;16.30;;;;;;;2.35;100.00;100527.16;5052138;28;20036;-63
2024/02/05 02:13:45;;;;;;;30.25;17.90;;;;;;;2.33;100.00;100536.38;5051697;28;20021;-66
2024/02/05 02:16:16;;;;;;;27.85;17.63;;;;;;;2.29;100.00;100519.06;5051189;28;20052;-69
2024/02/05 02:18:42;;;;;;;25.20;17.60;;;;;;;2.28;100.00;100522.41;5046694;28;20037;-65
2024/02/05 02:21:13;;;;;;;25.35;16.65;;;;;;;2.12;100.00;100512.81;5051378;28;20035;-66
2024/02/05 02:23:41;;;;;;;26.27;17.55;;;;;;;2.21;100.00;100530.41;5051369;28;20076;-65
2024/02/05 02:26:07;;;;;;;27.17;17.67;;;;;;;2.09;100.00;100538.94;5051337;28;20047;-71
2024/02/05 02:28:32;;;;;;;24.85;17.50;;;;;;;1.99;100.00;100530.50;5051267;28;20033;-65
2024/02/05 02:31:00;;;;;;;28.13;18.65;;;;;;;1.80;100.00;100505.41;5046889;28;20032;-66
2024/02/05 02:33:44;;;;;;;28.45;18.75;;;;;;;1.90;100.00;100526.50;5050749;28;20471;-64
2024/02/05 02:36:11;;;;;;;27.65;19.60;;;;;;;1.70;100.00;100481.81;5051024;28;20049;-63
2024/02/05 02:38:54;;;;;;;27.10;19.33;;;;;;;1.90;100.00;100518.88;5051042;28;20377;-65
2024/02/05 02:41:31;;;;;;;26.33;18.77;;;;;;;1.97;100.00;100519.31;5050483;28;20060;-66
2024/02/05 02:43:59;;;;;;;27.73;19.13;;;;;;;1.99;100.00;100520.34;5050714;28;20404;-63
2024/02/05 02:46:26;;;;;;;28.98;20.27;;;;;;;1.94;100.00;100515.81;5051699;28;20101;-66
2024/02/05 02:48:51;;;;;;;26.38;18.70;;;;;;;1.02;100.00;100372.59;5050823;28;20040;-67
2024/02/05 02:51:17;;;;;;;26.40;18.33;;;;;;;1.52;100.00;100439.75;5050905;28;20033;-63
2024/02/05 02:53:43;;;;;;;26.58;17.33;;;;;;;1.90;100.00;100510.38;5050123;28;20559;-66
2024/02/05 02:56:10;;;;;;;26.00;17.48;;;;;;;1.36;100.00;100413.22;5046411;28;20485;-64
2024/02/05 02:58:36;;;;;;;26.65;16.67;;;;;;;1.96;100.00;100507.34;5050906;28;20047;-66
2024/02/05 03:01:01;;;;;;;25.48;17.33;;;;;;;1.92;100.00;100524.97;5050376;28;20059;-63
2024/02/05 03:03:27;;;;;;;23.48;16.60;;;;;;;1.98;100.00;100523.66;5050466;28;21185;-65
2024/02/05 03:05:52;;;;;;;24.45;16.67;;;;;;;1.71;100.00;100487.78;5050116;28;20439;-63
2024/02/05 03:08:18;;;;;;;23.17;16.13;;;;;;;1.94;100.00;100525.06;5050638;28;20021;-66
2024/02/05 03:10:44;;;;;;;25.27;16.55;;;;;;;1.92;100.00;100512.25;5049443;28;20065;-65
2024/02/05 03:13:09;;;;;;;22.92;15.57;;;;;;;1.06;100.00;100361.88;5050322;28;20033;-65
2024/02/05 03:15:36;;;;;;;25.75;16.02;;;;;;;2.00;100.00;100515.34;5050928;28;20037;-65
2024/02/05 03:18:02;;;;;;;24.15;15.80;;;;;;;1.95;100.00;100506.50;5050651;28;20040;-67
2024/02/05 03:20:33;;;;;;;24.80;16.63;;;;;;;1.96;100.00;100490.44;5041958;28;20063;-64
2024/02/05 03:23:00;;;;;;;21.75;14.70;;;;;;;1.65;100.00;100423.72;5050208;28;20033;-66
2024/02/05 03:25:29;;;;;;;23.60;15.10;;;;;;;2.22;100.00;100515.22;5048951;28;20033;-66
2024/02/05 03:27:56;;;;;;;19.67;13.32;;;;;;;2.37;100.00;100514.53;5051176;28;20432;-65
2024/02/05 03:30:27;;;;;;;20.15;13.38;;;;;;;1.54;100.00;100339.00;5032573;28;20459;-66
2024/02/05 03:32:53;;;;;;;18.75;12.30;;;;;;;2.49;100.00;100491.56;5050195;28;20515;-66
2024/02/05 03:35:19;;;;;;;19.80;12.63;;;;;;;2.50;100.00;100483.16;5048399;28;20090;-66
2024/02/05 03:37:45;;;;;;;19.77;13.35;;;;;;;2.60;100.00;100470.25;5050095;28;20451;-63
2024/02/05 03:40:11;;;;;;;23.33;14.02;;;;;;;2.61;100.00;100476.25;5049766;28;20041;-65
2024/02/05 03:42:37;;;;;;;18.10;12.48;;;;;;;2.64;100.00;100477.34;5045571;28;20044;-64
2024/02/05 03:45:04;;;;;;;19.25;11.98;;;;;;;2.75;100.00;100481.53;5049781;28;20392;-64
2024/02/05 03:47:30;;;;;;;18.38;11.98;;;;;;;2.86;100.00;100468.59;5049931;28;20480;-65
2024/02/05 03:49:57;;;;;;;15.93;11.18;;;;;;;2.98;100.00;100479.63;5049635;28;20036;-63
2024/02/05 03:52:23;;;;;;;18.17;12.30;;;;;;;3.01;100.00;100466.22;5049917;28;20124;-66
2024/02/05 03:54:48;;;;;;;17.45;12.80;;;;;;;3.00;100.00;100455.09;5048173;28;20520;-66
2024/02/05 03:57:14;;;;;;;20.80;13.32;;;;;;;2.82;100.00;100430.94;5049285;28;20096;-69
2024/02/05 03:59:40;;;;;;;19.85;12.07;;;;;;;2.98;100.00;100469.44;5049569;28;20162;-64
2024/02/05 04:02:06;;;;;;;19.20;12.40;;;;;;;3.00;100.00;100470.41;5049541;28;20127;-67
2024/02/05 04:04:32;;;;;;;19.13;11.95;;;;;;;2.58;100.00;100397.94;5047595;28;20040;-65
2024/02/05 04:06:58;;;;;;;21.67;13.55;;;;;;;2.55;100.00;100387.50;5049598;28;20538;-65
2024/02/05 04:09:23;;;;;;;22.05;14.65;;;;;;;2.95;100.00;100464.13;5049275;28;20496;-64
2024/02/05 04:11:49;;;;;;;21.77;14.45;;;;;;;2.97;100.00;100474.44;5049453;28;20037;-66
2024/02/05 04:14:15;;;;;;;23.25;15.73;;;;;;;2.94;100.00;100464.94;5050120;28;20079;-64
2024/02/05 04:16:40;;;;;;;21.38;15.02;;;;;;;2.65;100.00;100406.84;5049694;28;20033;-64
2024/02/05 04:19:06;;;;;;;22.50;15.45;;;;;;;2.95;100.00;100466.66;5048949;28;20492;-66
2024/02/05 04:21:32;;;;;;;22.95;15.10;;;;;;;2.98;100.00;100461.78;5030318;28;20048;-64
2024/02/05 04:23:57;;;;;;;22.15;15.18;;;;;;;3.02;100.00;100467.97;5048839;28;20036;-65
2024/02/05 04:26:23;;;;;;;21.00;13.88;;;;;;;3.07;100.00;100458.97;5049238;28;20029;-64
2024/02/05 04:28:48;;;;;;;19.65;13.82;;;;;;;3.08;100.00;100448.00;5051197;28;20136;-64
2024/02/05 04:31:18;;;;;;;21.85;13.82;;;;;;;3.31;100.00;100456.28;5057519;28;20184;-66
2024/02/05 04:33:44;;;;;;;21.75;13.30;;;;;;;3.45;100.00;100447.88;5050269;28;20124;-65
2024/02/05 04:36:13;;;;;;;19.95;13.05;;;;;;;3.53;100.00;100463.66;5053226;28;20037;-65
2024/02/05 04:38:40;;;;;;;19.88;13.95;;;;;;;3.55;100.00;100445.13;5042711;28;20025;-65
2024/02/05 04:41:05;;;;;;;33.58;20.52;;;;;;;3.65;100.00;100454.25;5053087;28;20039;-64
2024/02/05 04:43:31;;;;;;;38.45;22.88;;;;;;;3.67;100.00;100444.13;5053127;28;20108;-64
2024/02/05 04:45:57;;;;;;;26.70;19.10;;;;;;;3.62;100.00;100422.53;5054042;28;20116;-65
2024/02/05 04:48:23;;;;;;;28.02;18.00;;;;;;;3.65;100.00;100436.38;5053129;28;20104;-64
2024/02/05 04:50:50;;;;;;;26.63;18.90;;;;;;;3.65;100.00;100443.13;5052801;28;20044;-64
2024/02/05 04:53:16;;;;;;;26.75;18.23;;;;;;;3.62;100.00;100436.16;5052667;28;20496;-65
2024/02/05 04:55:41;;;;;;;27.65;19.33;;;;;;;3.59;100.00;100435.09;5046994;28;20040;-63
2024/02/05 04:58:27;;;;;;;28.30;18.48;;;;;;;3.59;100.00;100430.88;5052530;28;20064;-64
2024/02/05 05:00:52;;;;;;;26.15;18.25;;;;;;;3.60;100.00;100437.75;5008636;28;20038;-65
2024/02/05 05:03:18;;;;;;;29.33;18.35;;;;;;;3.60;100.00;100435.22;5011086;28;20050;-63
2024/02/05 05:05:43;;;;;;;27.75;19.23;;;;;;;3.60;100.00;100445.41;5008051;28;20104;-65
2024/02/05 05:08:09;;;;;;;26.55;17.40;;;;;;;3.61;100.00;100439.50;5008939;28;20037;-65
2024/02/05 05:10:34;;;;;;;24.98;16.60;;;;;;;3.59;100.00;100436.00;5010217;28;20112;-64
2024/02/05 05:13:03;;;;;;;27.38;18.45;;;;;;;3.59;100.00;100436.00;5010059;28;20113;-64
2024/02/05 05:15:29;;;;;;;28.23;16.52;;;;;;;3.02;100.00;100336.22;5009868;28;20053;-64
2024/02/05 05:17:54;;;;;;;23.52;16.35;;;;;;;3.59;100.00;100437.63;5010220;28;20029;-65
2024/02/05 05:20:20;;;;;;;24.48;14.80;;;;;;;3.55;100.00;100432.34;5010190;28;20038;-66
2024/02/05 05:23:05;;;;;;;18.33;12.27;;;;;;;3.64;100.00;100452.47;5010347;28;20069;-65
2024/02/05 05:25:31;;;;;;;32.25;19.70;;;;;;;3.70;100.00;100464.75;4951440;29;20455;-64
2024/02/05 05:27:56;;;;;;;23.25;15.65;;;;;;;3.64;100.00;100455.03;4952327;29;20106;-69
2024/02/05 05:30:22;;;;;;;21.45;12.57;;;;;;;3.77;100.00;100454.13;4951634;29;20203;-63
2024/02/05 05:32:47;;;;;;;16.88;11.80;;;;;;;3.81;100.00;100447.56;5002951;28;20077;-64
2024/02/05 05:35:13;;;;;;;19.42;12.00;;;;;;;3.82;100.00;100447.66;5010192;28;20049;-65
2024/02/05 05:37:40;;;;;;;15.30;10.55;;;;;;;3.83;100.00;100453.66;4977014;28;20421;-65
2024/02/05 05:40:08;;;;;;;18.25;10.55;;;;;;;3.43;100.00;100374.50;5009554;28;20513;-68
2024/02/05 05:42:33;;;;;;;21.23;13.07;;;;;;;3.97;100.00;100457.94;5009534;28;20049;-65
2024/02/05 05:44:59;;;;;;;18.15;10.77;;;;;;;4.00;100.00;100457.25;5000899;28;20042;-64
2024/02/05 05:47:25;;;;;;;21.00;11.90;;;;;;;3.97;100.00;100452.84;5009612;28;20112;-71
2024/02/05 05:49:50;;;;;;;98.45;36.95;;;;;;;4.09;100.00;100455.31;5009544;28;20038;-68
2024/02/05 05:52:16;;;;;;;52.40;29.55;;;;;;;4.09;100.00;100439.97;5009572;28;20121;-65
2024/02/05 05:54:41;;;;;;;44.53;32.17;;;;;;;4.21;100.00;100450.06;5010063;28;20041;-65
2024/02/05 05:57:08;;;;;;;18.08;14.27;;;;;;;3.79;100.00;100377.63;5009319;28;20100;-70
2024/02/05 05:59:38;;;;;;;22.05;14.38;;;;;;;4.28;100.00;100453.91;5009261;28;20044;-64
2024/02/05 06:02:03;;;;;;;19.27;14.48;;;;;;;4.26;100.00;100448.69;5014744;28;20042;-64
2024/02/05 06:04:29;;;;;;;18.40;13.45;;;;;;;4.27;100.00;100436.78;5051723;28;20061;-70
2024/02/05 06:06:54;;;;;;;20.85;15.20;;;;;;;4.28;100.00;100438.56;5051592;28;20025;-64
2024/02/05 06:09:21;;;;;;;19.17;12.40;;;;;;;4.26;100.00;100446.16;5051463;28;20076;-65
2024/02/05 06:11:46;;;;;;;16.80;11.32;;;;;;;4.21;100.00;100437.28;5051584;28;20029;-64
2024/02/05 06:14:13;;;;;;;18.77;12.52;;;;;;;4.30;100.00;100445.53;5051813;28;20024;-66
2024/02/05 06:16:59;;;;;;;16.30;10.45;;;;;;;4.32;100.00;100445.63;5028128;28;20524;-66
2024/02/05 06:19:26;;;;;;;16.88;12.00;;;;;;;4.24;100.00;100426.38;5028965;28;20111;-63
2024/02/05 06:21:51;;;;;;;20.48;10.85;;;;;;;4.37;100.00;100444.22;5028006;28;20066;-64
2024/02/05 06:24:18;;;;;;;13.85;9.50;;;;;;;4.09;100.00;100405.84;5028060;28;20037;-69
2024/02/05 06:26:46;;;;;;;12.70;9.65;;;;;;;4.50;100.00;100467.19;5027483;28;20056;-66
2024/02/05 06:29:15;;;;;;;18.88;11.30;;;;;;;4.50;100.00;100459.53;5025894;28;20516;-67
2024/02/05 06:31:41;;;;;;;15.88;10.55;;;;;;;4.49;100.00;100457.75;5028317;28;20496;-65
2024/02/05 06:34:06;;;;;;;16.90;10.68;;;;;;;4.57;100.00;100458.22;5028906;28;20068;-64
2024/02/05 06:36:33;;;;;;;13.50;9.20;;;;;;;4.60;100.00;100465.19;5027948;28;20052;-64
2024/02/05 06:39:00;;;;;;;14.35;8.60;;;;;;;4.59;100.00;100459.22;4985456;28;20535;-63
2024/02/05 06:41:25;;;;;;;13.05;8.05;;;;;;;4.59;100.00;100471.13;4988492;28;20189;-67
2024/02/05 06:43:51;;;;;;;11.35;7.15;;;;;;;4.78;100.00;100458.63;4985164;28;20875;-64
2024/02/05 06:46:16;;;;;;;13.70;8.30;;;;;;;4.88;100.00;100465.19;4989518;28;20073;-70
2024/02/05 06:48:42;;;;;;;13.73;7.88;;;;;;;4.88;100.00;100457.50;5019729;28;20132;-68
2024/02/05 06:51:07;;;;;;;12.02;8.02;;;;;;;5.00;100.00;100465.91;5026775;28;20072;-66
2024/02/05 06:53:33;;;;;;;12.40;8.32;;;;;;;5.12;100.00;100477.66;5027188;28;20128;-66
2024/02/05 06:55:58;;;;;;;9.88;6.70;;;;;;;5.10;100.00;100479.28;5028181;28;20040;-64
2024/02/05 06:58:24;;;;;;;13.90;8.35;;;;;;;5.27;100.00;100481.16;5022574;28;20409;-65
2024/02/05 07:00:49;;;;;;;11.68;8.43;;;;;;;4.93;100.00;100422.84;5021810;28;20037;-67
2024/02/05 07:03:15;;;;;;;9.00;5.13;;;;;;;5.36;100.00;100475.69;5020510;28;20107;-66
2024/02/05 07:05:40;;;;;;;10.90;6.00;;;;;;;5.63;100.00;100490.84;5026803;28;20486;-65
2024/02/05 07:08:06;;;;;;;10.73;5.65;;;;;;;5.80;100.00;100484.13;5026894;28;20052;-65
2024/02/05 07:10:32;;;;;;;9.45;5.43;;;;;;;5.90;100.00;100481.28;5022748;28;20503;-70
2024/02/05 07:12:57;;;;;;;6.93;4.47;;;;;;;6.06;100.00;100487.31;5027665;28;20091;-67
2024/02/05 07:15:22;;;;;;;7.78;3.72;;;;;;;6.06;100.00;100448.84;5029033;28;20829;-65
2024/02/05 07:17:48;;;;;;;7.80;4.32;;;;;;;6.24;100.00;100457.56;5051037;28;20089;-69
2024/02/05 07:20:14;;;;;;;8.98;4.40;;;;;;;6.49;100.00;100484.50;5050290;28;20408;-67
2024/02/05 07:22:40;;;;;;;6.00;3.72;;;;;;;6.47;100.00;100463.03;5050500;28;20033;-66
2024/02/05 07:25:06;;;;;;;6.28;4.18;;;;;;;6.18;100.00;100400.81;5051142;28;20464;-65
2024/02/05 07:27:33;;;;;;;4.22;3.22;;;;;;;6.75;100.00;100469.59;5049552;28;20459;-66
2024/02/05 07:29:58;;;;;;;6.43;3.90;;;;;;;7.03;100.00;100473.59;5049964;28;20083;-64
2024/02/05 07:32:24;;;;;;;6.85;3.95;;;;;;;7.27;100.00;100487.69;5049814;28;20044;-66
2024/02/05 07:34:50;;;;;;;8.48;4.90;;;;;;;7.52;100.00;100477.75;5049276;28;20443;-67
2024/02/05 07:37:15;;;;;;;6.93;4.20;;;;;;;7.78;99.40;100474.75;5049850;28;20021;-67
2024/02/05 07:39:41;;;;;;;8.35;4.10;;;;;;;7.93;98.58;100469.47;5050562;28;20448;-65
2024/02/05 07:42:07;;;;;;;6.30;4.05;;;;;;;8.09;97.37;100453.09;5048841;28;20021;-65
2024/02/05 07:44:33;;;;;;;6.43;3.85;;;;;;;8.34;96.83;100471.34;5048833;28;20116;-66
2024/02/05 07:46:59;;;;;;;10.35;3.88;;;;;;;8.43;96.78;100462.34;5049738;28;20104;-67
2024/02/05 07:49:27;;;;;;;5.88;4.00;;;;;;;8.58;96.80;100469.94;5027772;28;20136;-66
2024/02/05 07:51:54;;;;;;;6.63;3.65;;;;;;;8.74;95.84;100463.75;5048599;28;20040;-67
2024/02/05 07:54:19;;;;;;;6.28;3.22;;;;;;;8.97;94.63;100465.56;5041610;28;20052;-64
2024/02/05 07:56:45;;;;;;;5.63;3.15;;;;;;;9.29;91.06;100460.94;5049418;28;20025;-65
2024/02/05 07:59:11;;;;;;;7.68;3.40;;;;;;;9.69;88.28;100466.03;5049290;28;20488;-64
2024/02/05 08:01:38;;;;;;;4.57;2.65;;;;;;;9.93;87.66;100457.50;5050010;28;20033;-64
2024/02/05 08:04:04;;;;;;;7.03;2.90;;;;;;;10.11;87.55;100469.38;5046884;28;20484;-65
2024/02/05 08:06:30;;;;;;;12.70;2.60;;;;;;;10.50;82.03;100484.63;5048993;28;20167;-66
2024/02/05 08:08:56;;;;;;;5.45;2.40;;;;;;;10.94;78.61;100494.81;5049667;28;20033;-66
2024/02/05 08:11:24;;;;;;;3.65;2.05;;;;;;;11.23;75.83;100492.41;5049535;28;20040;-63
2024/02/05 08:13:50;;;;;;;2.95;2.05;;;;;;;11.27;75.80;100486.50;5049592;28;20052;-65
2024/02/05 08:16:16;;;;;;;8.45;2.58;;;;;;;11.43;75.61;100487.91;4994113;28;20034;-65
2024/02/05 08:18:41;;;;;;;4.13;1.90;;;;;;;11.81;72.29;100471.06;4996575;28;20049;-68
2024/02/05 08:21:07;;;;;;;10.10;2.17;;;;;;;12.48;69.67;100474.81;4996652;28;20050;-68
2024/02/05 08:23:32;;;;;;;3.92;1.98;;;;;;;12.62;67.75;100463.13;4997000;28;20038;-65
2024/02/05 08:25:58;;;;;;;3.95;2.22;;;;;;;12.69;67.08;100465.06;4996552;28;20053;-65
2024/02/05 08:28:24;;;;;;;6.32;2.42;;;;;;;12.80;66.84;100449.84;4996992;28;20471;-65
2024/02/05 08:30:49;;;;;;;9.57;2.30;;;;;;;12.91;65.86;100434.56;4996030;28;20037;-64
2024/02/05 08:33:15;;;;;;;3.25;1.42;;;;;;;13.26;64.94;100443.25;4996926;28;20049;-65
2024/02/05 08:35:40;;;;;;;6.30;1.60;;;;;;;13.41;64.69;100460.09;4993001;28;20125;-66
2024/02/05 08:38:07;;;;;;;6.55;2.63;;;;;;;13.32;63.97;100446.84;4999361;28;20046;-67
2024/02/05 08:40:32;;;;;;;4.13;1.85;;;;;;;13.33;63.98;100446.00;4999068;28;20029;-67
2024/02/05 08:42:58;;;;;;;4.32;2.28;;;;;;;13.28;65.00;100432.94;4998125;28;20425;-65
2024/02/05 08:45:23;;;;;;;2.78;1.83;;;;;;;13.39;63.42;100443.59;4993131;28;20042;-66
2024/02/05 08:47:53;;;;;;;5.57;2.38;;;;;;;13.35;63.78;100444.34;5037649;28;20509;-66
2024/02/05 08:50:19;;;;;;;4.75;2.10;;;;;;;13.33;64.22;100448.59;5049022;28;20082;-66
2024/02/05 08:52:48;;;;;;;4.45;2.08;;;;;;;13.46;63.75;100445.53;5048392;28;20037;-65
2024/02/05 08:55:14;;;;;;;3.92;2.08;;;;;;;13.53;63.81;100457.81;5047668;28;20033;-66
2024/02/05 08:57:44;;;;;;;4.80;2.28;;;;;;;13.67;62.62;100444.28;5048494;28;20048;-67
2024/02/05 09:00:10;;;;;;;4.55;2.60;;;;;;;12.94;63.31;100321.50;5049080;28;20069;-65
2024/02/05 09:02:39;;;;;;;5.18;2.30;;;;;;;13.24;63.40;100372.34;5048656;28;20123;-65
2024/02/05 09:05:05;;;;;;;7.05;2.40;;;;;;;13.74;62.68;100444.47;5048702;28;20029;-64
2024/02/05 09:07:30;;;;;;;4.57;2.13;;;;;;;13.85;62.13;100438.66;5048453;28;20059;-65
2024/02/05 09:10:16;;;;;;;5.60;3.00;;;;;;;13.86;62.02;100443.00;5042631;28;20179;-65
2024/02/05 09:12:42;;;;;;;6.03;2.40;;;;;;;13.84;62.05;100434.31;5037635;28;20140;-65
2024/02/05 09:15:07;;;;;;;7.15;3.15;;;;;;;13.93;62.45;100431.91;5039214;28;20444;-65
2024/02/05 09:17:33;;;;;;;5.28;2.65;;;;;;;14.15;61.85;100430.66;5049792;28;20059;-66
2024/02/05 09:19:58;;;;;;;6.20;3.28;;;;;;;14.29;60.77;100420.56;5041631;28;20064;-65
2024/02/05 09:22:24;;;;;;;5.55;2.58;;;;;;;14.39;60.66;100417.34;5042508;28;20119;-66
2024/02/05 09:24:50;;;;;;;4.60;2.28;;;;;;;14.47;60.15;100429.59;5043762;28;20421;-71
2024/02/05 09:27:15;;;;;;;6.53;2.53;;;;;;;14.51;60.20;100405.44;5048836;28;20126;-65
2024/02/05 09:29:41;;;;;;;8.13;2.70;;;;;;;14.68;60.50;100404.06;5043633;28;20095;-65
2024/02/05 09:32:08;;;;;;;7.25;2.67;;;;;;;14.85;59.98;100375.81;5039006;28;20075;-66
2024/02/05 09:34:35;;;;;;;6.07;2.92;;;;;;;15.02;61.29;100385.63;5041152;28;20036;-66
2024/02/05 09:37:03;;;;;;;11.93;3.60;;;;;;;14.65;58.54;100278.41;5043756;28;20412;-65
2024/02/05 09:39:29;;;;;;;4.88;2.65;;;;;;;15.56;58.27;100396.03;5043575;28;20425;-65
2024/02/05 09:41:59;;;;;;;5.78;2.92;;;;;;;15.60;56.84;100323.25;5051071;28;20040;-67
2024/02/05 09:44:27;;;;;;;7.75;2.85;;;;;;;16.03;55.11;100393.25;5052057;28;20442;-63
2024/02/05 09:46:55;;;;;;;6.15;3.03;;;;;;;16.15;55.84;100372.59;5043907;28;20114;-64
2024/02/05 09:49:21;;;;;;;6.25;2.88;;;;;;;16.39;55.19;100378.94;5052248;28;20041;-65
2024/02/05 09:51:48;;;;;;;7.25;2.70;;;;;;;16.31;53.42;100310.22;5050532;28;20039;-66
2024/02/05 09:54:14;;;;;;;9.77;3.58;;;;;;;16.80;53.00;100347.22;5051557;28;20033;-66
2024/02/05 09:56:40;;;;;;;14.68;3.63;;;;;;;17.05;51.61;100367.50;5051100;28;20029;-64
2024/02/05 09:59:06;;;;;;;7.22;3.08;;;;;;;17.07;49.40;100363.13;5040557;28;20405;-66
2024/02/05 10:01:32;;;;;;;10.43;4.95;;;;;;;17.20;49.02;100383.25;5021488;28;20103;-69
2024/02/05 10:04:00;;;;;;;21.38;8.23;;;;;;;16.85;48.65;100294.25;5039840;28;20394;-65
2024/02/05 10:06:33;;;;;;;17.23;5.43;;;;;;;17.10;47.91;100345.78;5051521;28;20033;-65
2024/02/05 10:09:04;;;;;;;15.52;6.57;;;;;;;16.82;48.58;100293.38;5051281;28;20033;-68
2024/02/05 10:11:50;;;;;;;10.00;4.93;;;;;;;17.32;47.98;100355.50;5051579;28;20078;-65
2024/02/05 10:14:16;;;;;;;10.95;4.68;;;;;;;17.38;46.94;100351.19;4979544;28;20042;-66
2024/02/05 10:16:43;;;;;;;11.80;4.80;;;;;;;17.30;47.99;100352.91;4981390;28;20058;-64
2024/02/05 10:19:09;;;;;;;9.75;4.25;;;;;;;17.10;48.61;100356.22;4981385;28;20537;-65
2024/02/05 10:21:35;;;;;;;6.35;3.10;;;;;;;16.93;48.49;100349.97;4979633;28;20038;-66
2024/02/05 10:24:00;;;;;;;5.65;2.63;;;;;;;16.88;48.50;100339.47;4979534;28;20042;-66
2024/02/05 10:26:26;;;;;;;7.97;3.58;;;;;;;16.93;48.13;100326.50;4978363;28;20042;-65
2024/02/05 10:28:52;;;;;;;9.65;4.00;;;;;;;17.27;46.88;100329.38;4976603;28;20042;-66
2024/02/05 10:31:18;;;;;;;10.15;5.70;;;;;;;17.51;46.86;100328.69;4980601;28;20495;-65
2024/02/05 10:33:46;;;;;;;20.75;7.60;;;;;;;17.77;46.21;100313.16;4980055;28;20125;-65
2024/02/05 10:36:14;;;;;;;15.55;6.90;;;;;;;17.82;46.19;100313.19;4978758;28;20034;-65
2024/02/05 10:38:40;;;;;;;14.20;6.13;;;;;;;17.61;46.28;100295.69;4968310;28;20082;-65
2024/02/05 10:41:10;;;;;;;11.30;5.45;;;;;;;17.66;46.10;100327.00;4969083;28;20055;-66
2024/02/05 10:43:36;;;;;;;;;;;;;;;17.69;46.27;100317.47;4971036;28;20047;-64
2024/02/05 10:46:02;;;;;;;10.55;5.70;;;;;;;17.56;46.54;100307.84;4967874;28;19925;-65
2024/02/05 10:48:27;;;;;;;9.38;4.47;;;;;;;17.85;45.96;100314.94;4969098;28;20701;-66
2024/02/05 10:50:53;;;;;;;5.18;3.00;;;;;;;18.04;45.16;100315.91;4984839;28;20044;-66
2024/02/05 10:53:19;;;;;;;6.47;3.65;;;;;;;17.88;45.22;100260.09;5024859;28;20045;-65
2024/02/05 10:55:45;;;;;;;7.90;3.58;;;;;;;18.24;44.05;100298.56;5025950;28;20029;-65
2024/02/05 10:58:15;;;;;;;8.48;3.42;;;;;;;18.25;44.11;100307.28;5025042;28;20448;-66
2024/02/05 11:00:43;;;;;;;;;;;;;;;18.37;43.10;100298.59;5025203;28;20497;-67
2024/02/05 11:03:12;;;;;;;8.13;3.20;;;;;;;18.57;42.71;100281.19;5026881;28;20496;-66
2024/02/05 11:05:40;;;;;;;7.30;4.13;;;;;;;18.67;42.99;100268.16;5018664;28;20044;-65
2024/02/05 11:08:21;;;;;;;8.67;3.60;;;;;;;18.38;41.61;100206.25;5027305;28;20129;-70
2024/02/05 11:10:49;;;;;;;9.60;3.70;;;;;;;18.91;41.56;100275.13;5041967;28;20341;-72
2024/02/05 11:13:22;;;;;;;7.60;3.40;;;;;;;18.26;41.21;100160.09;5049349;28;20029;-67
2024/02/05 11:15:51;;;;;;;9.25;3.60;;;;;;;18.56;41.06;100213.22;5045689;28;20045;-66